createdAt,value
2019-02-03T00:01:32.048Z,30.90
2019-02-03T00:04:02.189Z,30.10
2019-02-03T00:06:32.349Z,30.02
2019-02-03T00:09:06.900Z,31.10
2019-02-03T00:11:37.889Z,33.55
2019-02-03T00:14:10.954Z,30.35
2019-02-03T00:16:41.352Z,33.55
2019-02-03T00:19:23.776Z,32.38
2019-02-03T00:21:54.749Z,34.30
2019-02-03T00:24:25.080Z,33.90
2019-02-03T00:26:55.173Z,31.93
2019-02-03T00:29:26.244Z,34.38
2019-02-03T00:31:58.272Z,36.75
2019-02-03T00:34:34.004Z,32.40
2019-02-03T00:37:15.261Z,32.80
2019-02-03T00:39:37.918Z,33.02
2019-02-03T00:42:08.016Z,33.95
2019-02-03T00:44:38.093Z,35.30
2019-02-03T00:47:10.055Z,36.17
2019-02-03T00:49:42.113Z,36.03
2019-02-03T00:52:12.190Z,35.65
2019-02-03T00:54:45.741Z,37.70
2019-02-03T00:57:15.824Z,35.20
2019-02-03T00:59:59.304Z,36.80
2019-02-03T01:02:30.736Z,37.58
2019-02-03T01:05:00.856Z,38.80
2019-02-03T01:07:33.056Z,38.45
2019-02-03T01:10:03.313Z,38.13
2019-02-03T01:12:34.286Z,36.85
2019-02-03T01:15:08.964Z,37.15
2019-02-03T01:17:40.060Z,36.00
2019-02-03T01:20:22.497Z,39.10
2019-02-03T01:22:52.565Z,34.70
2019-02-03T01:25:32.024Z,34.88
2019-02-03T01:28:02.176Z,33.55
2019-02-03T01:30:32.269Z,33.10
2019-02-03T01:33:03.293Z,31.35
2019-02-03T01:35:33.407Z,32.20
2019-02-03T01:38:12.769Z,33.20
2019-02-03T01:40:42.854Z,28.77
2019-02-03T01:43:12.941Z,32.15
2019-02-03T01:45:43.028Z,32.58
2019-02-03T01:48:18.093Z,30.12
2019-02-03T01:50:48.174Z,29.25
2019-02-03T01:53:18.257Z,28.47
2019-02-03T01:55:49.331Z,25.27
2019-02-03T01:58:30.281Z,27.42
2019-02-03T02:01:01.328Z,28.55
2019-02-03T02:03:32.302Z,26.35
2019-02-03T02:06:02.381Z,26.57
2019-02-03T02:08:38.429Z,28.62
2019-02-03T02:11:10.492Z,26.40
2019-02-03T02:13:46.590Z,30.37
2019-02-03T02:16:22.597Z,22.87
2019-02-03T02:18:54.737Z,28.47
2019-02-03T02:21:26.733Z,25.37
2019-02-03T02:23:56.808Z,25.02
2019-02-03T02:26:26.904Z,26.82
2019-02-03T02:28:56.992Z,21.57
2019-02-03T02:31:28.043Z,25.30
2019-02-03T02:33:58.393Z,26.52
2019-02-03T02:36:34.445Z,25.82
2019-02-03T02:39:07.186Z,25.48
2019-02-03T02:41:37.337Z,27.27
2019-02-03T02:44:12.622Z,24.18
2019-02-03T02:46:42.697Z,25.77
2019-02-03T02:49:19.912Z,24.90
2019-02-03T02:52:08.756Z,26.55
2019-02-03T02:54:41.037Z,27.52
2019-02-03T02:57:14.058Z,24.72
2019-02-03T02:59:44.361Z,26.65
2019-02-03T03:02:20.345Z,23.75
2019-02-03T03:04:50.425Z,25.10
2019-02-03T03:07:20.524Z,22.02
2019-02-03T03:09:50.601Z,21.40
2019-02-03T03:12:20.677Z,25.17
2019-02-03T03:14:50.782Z,26.25
2019-02-03T03:17:20.865Z,21.68
2019-02-03T03:19:50.997Z,21.75
2019-02-03T03:22:26.827Z,24.67
2019-02-03T03:24:57.913Z,20.88
2019-02-03T03:27:29.201Z,21.17
2019-02-03T03:29:59.281Z,20.55
2019-02-03T03:32:29.370Z,20.35
2019-02-03T03:35:07.701Z,22.67
2019-02-03T03:37:37.812Z,18.32
2019-02-03T03:40:12.643Z,17.25
2019-02-03T03:42:42.832Z,19.48
2019-02-03T03:45:13.617Z,21.12
2019-02-03T03:47:43.765Z,19.55
2019-02-03T03:50:17.361Z,19.50
2019-02-03T03:52:49.571Z,20.57
2019-02-03T03:55:23.465Z,19.27
2019-02-03T03:57:54.458Z,19.25
2019-02-03T04:00:26.619Z,19.77
2019-02-03T04:02:56.683Z,18.48
2019-02-03T04:05:29.790Z,20.20
2019-02-03T04:08:09.906Z,18.77
2019-02-03T04:10:41.037Z,20.37
2019-02-03T04:13:11.122Z,18.15
2019-02-03T04:15:43.234Z,20.43
2019-02-03T04:18:14.361Z,18.30
2019-02-03T04:20:53.721Z,17.45
2019-02-03T04:23:24.931Z,18.77
2019-02-03T04:25:56.929Z,17.73
2019-02-03T04:28:27.160Z,16.52
2019-02-03T04:30:57.153Z,18.92
2019-02-03T04:33:29.136Z,15.32
2019-02-03T04:36:09.429Z,17.57
2019-02-03T04:38:40.437Z,19.05
2019-02-03T04:41:20.665Z,19.85
2019-02-03T04:43:54.671Z,20.57
2019-02-03T04:46:24.749Z,19.35
2019-02-03T04:48:54.877Z,19.50
2019-02-03T04:51:26.889Z,18.10
2019-02-03T04:53:58.958Z,19.12
2019-02-03T04:56:35.607Z,20.40
2019-02-03T04:59:05.919Z,18.87
2019-02-03T05:01:36.260Z,18.02
2019-02-03T05:04:07.324Z,18.80
2019-02-03T05:06:37.395Z,15.70
2019-02-03T05:09:11.670Z,17.40
2019-02-03T05:11:42.693Z,15.38
2019-02-03T05:14:23.026Z,15.90
2019-02-03T05:16:55.086Z,17.50
2019-02-03T05:19:32.039Z,15.03
2019-02-03T05:22:15.425Z,16.05
2019-02-03T05:24:45.526Z,14.15
2019-02-03T05:27:21.630Z,12.82
2019-02-03T05:29:57.778Z,14.43
2019-02-03T05:32:31.030Z,15.08
2019-02-03T05:35:03.024Z,13.05
2019-02-03T05:37:38.946Z,13.40
2019-02-03T05:40:16.750Z,13.25
2019-02-03T05:42:46.911Z,14.47
2019-02-03T05:45:23.950Z,13.00
2019-02-03T05:47:54.229Z,13.80
2019-02-03T05:50:35.559Z,15.80
2019-02-03T05:53:06.541Z,14.00
2019-02-03T05:55:36.618Z,12.70
2019-02-03T05:58:06.701Z,16.07
2019-02-03T06:00:48.754Z,13.88
2019-02-03T06:03:18.830Z,13.60
2019-02-03T06:06:07.082Z,13.80
2019-02-03T06:08:40.842Z,13.78
2019-02-03T06:11:10.950Z,12.50
2019-02-03T06:14:03.006Z,11.33
2019-02-03T06:16:33.086Z,14.43
2019-02-03T06:19:05.210Z,13.98
2019-02-03T06:21:35.541Z,11.88
2019-02-03T06:24:14.498Z,12.60
2019-02-03T06:26:50.574Z,14.10
2019-02-03T06:29:32.670Z,13.25
2019-02-03T06:32:05.418Z,12.95
2019-02-03T06:34:36.387Z,15.80
2019-02-03T06:37:07.378Z,14.28
2019-02-03T06:39:48.082Z,14.55
2019-02-03T06:42:14.485Z,12.03
2019-02-03T06:44:54.266Z,15.00
2019-02-03T06:47:25.026Z,15.32
2019-02-03T06:49:55.090Z,15.13
2019-02-03T06:52:30.394Z,12.03
2019-02-03T06:55:00.475Z,13.10
2019-02-03T06:57:32.850Z,11.97
2019-02-03T07:00:11.942Z,13.30
2019-02-03T07:02:45.142Z,8.95
2019-02-03T07:05:15.298Z,13.53
2019-02-03T07:07:51.470Z,14.50
2019-02-03T07:10:32.734Z,12.60
2019-02-03T07:13:10.500Z,9.65
2019-02-03T07:15:41.450Z,10.85
2019-02-03T07:18:16.842Z,11.68
2019-02-03T07:20:46.922Z,11.60
2019-02-03T07:23:23.077Z,13.45
2019-02-03T07:25:59.950Z,11.70
2019-02-03T07:28:34.939Z,10.72
2019-02-03T07:31:06.959Z,10.68
2019-02-03T07:33:37.047Z,9.13
2019-02-03T07:36:08.106Z,12.03
2019-02-03T07:38:38.452Z,11.03
2019-02-03T07:41:11.658Z,11.85
2019-02-03T07:43:41.724Z,13.08
2019-02-03T07:46:13.707Z,13.93
2019-02-03T07:48:51.806Z,13.60
2019-02-03T07:51:23.878Z,13.88
2019-02-03T07:53:55.028Z,13.40
2019-02-03T07:56:26.062Z,17.67
2019-02-03T07:58:56.175Z,11.78
2019-02-03T08:01:26.439Z,13.32
2019-02-03T08:03:56.510Z,14.60
2019-02-03T08:06:26.659Z,14.33
2019-02-03T08:08:57.694Z,11.93
2019-02-03T08:11:34.470Z,12.60
2019-02-03T08:14:05.462Z,14.78
2019-02-03T08:16:36.428Z,14.30
2019-02-03T08:19:12.589Z,13.75
2019-02-03T08:22:00.789Z,15.63
2019-02-03T08:24:30.870Z,12.50
2019-02-03T08:27:04.001Z,15.55
2019-02-03T08:29:35.978Z,18.52
2019-02-03T08:32:06.192Z,12.88
2019-02-03T08:34:38.178Z,16.85
2019-02-03T08:37:09.158Z,16.07
2019-02-03T08:39:45.174Z,17.50
2019-02-03T08:42:18.368Z,19.17
2019-02-03T08:44:57.402Z,22.10
2019-02-03T08:47:34.646Z,20.23
2019-02-03T08:50:11.803Z,20.92
2019-02-03T08:52:41.970Z,16.87
2019-02-03T08:55:15.938Z,12.98
2019-02-03T08:57:58.286Z,14.35
2019-02-03T09:00:35.725Z,16.00
2019-02-03T09:03:08.871Z,14.40
2019-02-03T09:05:38.950Z,14.40
2019-02-03T09:08:11.054Z,16.00
2019-02-03T09:10:48.813Z,14.05
2019-02-03T09:13:21.163Z,14.73
2019-02-03T09:15:53.354Z,11.68
2019-02-03T09:18:24.606Z,11.95
2019-02-03T09:20:56.101Z,15.10
2019-02-03T09:23:32.458Z,12.82
2019-02-03T09:26:03.446Z,9.30
2019-02-03T09:28:35.434Z,12.53
2019-02-03T09:31:13.378Z,16.60
2019-02-03T09:33:44.412Z,20.00
2019-02-03T09:36:16.506Z,16.27
2019-02-03T09:38:52.634Z,16.77
2019-02-03T09:41:22.706Z,15.43
2019-02-03T09:43:54.942Z,16.90
2019-02-03T09:46:26.982Z,16.37
2019-02-03T09:48:58.374Z,16.30
2019-02-03T09:51:28.898Z,13.13
2019-02-03T09:53:59.878Z,14.03
2019-02-03T09:56:30.592Z,13.40
2019-02-03T09:59:00.666Z,15.55
2019-02-03T10:01:32.010Z,16.37
2019-02-03T10:04:02.094Z,15.88
2019-02-03T10:06:32.182Z,17.67
2019-02-03T10:09:02.319Z,12.28
2019-02-03T10:11:34.310Z,14.07
2019-02-03T10:14:11.259Z,10.70
2019-02-03T10:16:41.302Z,18.70
2019-02-03T10:19:17.734Z,16.52
2019-02-03T10:21:48.434Z,17.37
2019-02-03T10:24:18.514Z,14.83
2019-02-03T10:26:48.602Z,19.32
2019-02-03T10:29:18.674Z,15.63
2019-02-03T10:31:49.668Z,11.63
2019-02-03T10:34:19.754Z,14.85
2019-02-03T10:36:49.886Z,15.90
2019-02-03T10:39:19.975Z,16.40
2019-02-03T10:41:50.081Z,16.55
2019-02-03T10:44:23.181Z,18.55
2019-02-03T10:46:59.322Z,15.80
2019-02-03T10:49:29.698Z,15.40
2019-02-03T10:52:01.652Z,14.50
2019-02-03T10:54:32.695Z,11.95
2019-02-03T10:57:02.782Z,16.30
2019-02-03T10:59:32.870Z,17.60
2019-02-03T11:02:07.553Z,14.15
2019-02-03T11:04:37.658Z,20.23
2019-02-03T11:07:07.910Z,16.20
2019-02-03T11:09:38.011Z,16.35
2019-02-03T11:12:08.090Z,16.40
2019-02-03T11:14:38.218Z,20.08
2019-02-03T11:17:08.590Z,20.23
2019-02-03T11:19:39.690Z,17.82
2019-02-03T11:22:10.718Z,21.77
2019-02-03T11:24:40.802Z,21.87
2019-02-03T11:27:11.974Z,20.55
2019-02-03T11:29:42.034Z,20.15
2019-02-03T11:32:12.360Z,19.07
2019-02-03T11:34:42.458Z,23.25
2019-02-03T11:37:12.550Z,22.95
2019-02-03T11:39:42.630Z,21.87
2019-02-03T11:42:13.736Z,19.80
2019-02-03T11:44:44.758Z,22.30
2019-02-03T11:47:16.858Z,21.68
2019-02-03T11:49:46.962Z,22.15
2019-02-03T11:52:17.934Z,21.52
2019-02-03T11:54:49.026Z,21.70
2019-02-03T11:57:19.102Z,19.20
2019-02-03T11:59:50.182Z,16.62
2019-02-03T12:02:20.254Z,19.05
2019-02-03T12:04:51.470Z,19.82
2019-02-03T12:07:24.514Z,20.25
2019-02-03T12:09:54.796Z,20.50
2019-02-03T12:12:26.007Z,20.37
2019-02-03T12:14:56.926Z,21.33
2019-02-03T12:17:27.020Z,21.85
2019-02-03T12:19:57.098Z,22.22
2019-02-03T12:22:27.352Z,20.35
2019-02-03T12:24:58.426Z,21.60
2019-02-03T12:27:28.518Z,13.98
2019-02-03T12:29:58.604Z,20.65
2019-02-03T12:32:29.595Z,20.23
2019-02-03T12:35:00.011Z,23.20
2019-02-03T12:37:31.282Z,21.40
2019-02-03T12:40:01.291Z,21.48
2019-02-03T12:42:32.334Z,22.93
2019-02-03T12:45:02.418Z,21.45
2019-02-03T12:47:32.566Z,23.20
2019-02-03T12:50:05.194Z,23.30
2019-02-03T12:52:36.178Z,21.62
2019-02-03T12:55:11.863Z,22.35
2019-02-03T12:57:46.565Z,22.22
2019-02-03T13:00:20.398Z,22.07
2019-02-03T13:02:50.627Z,25.97
2019-02-03T13:05:23.814Z,19.50
2019-02-03T13:08:02.810Z,20.23
2019-02-03T13:10:39.002Z,24.77
2019-02-03T13:13:09.943Z,20.30
2019-02-03T13:15:51.062Z,22.48
2019-02-03T13:18:23.430Z,21.60
2019-02-03T13:20:53.482Z,23.00
2019-02-03T13:23:25.534Z,22.82
2019-02-03T13:25:55.686Z,18.50
2019-02-03T13:28:25.776Z,23.20
2019-02-03T13:30:57.842Z,22.25
2019-02-03T13:33:28.003Z,22.05
2019-02-03T13:35:58.087Z,18.00
2019-02-03T13:38:28.315Z,24.82
2019-02-03T13:41:08.482Z,22.13
2019-02-03T13:43:40.527Z,17.73
2019-02-03T13:46:10.827Z,19.05
2019-02-03T13:48:40.959Z,22.32
2019-02-03T13:51:15.170Z,18.82
2019-02-03T13:53:49.254Z,15.75
2019-02-03T13:56:19.338Z,20.52
2019-02-03T13:58:49.430Z,21.90
2019-02-03T14:01:20.459Z,19.67
2019-02-03T14:03:51.039Z,23.20
2019-02-03T14:06:21.136Z,20.57
2019-02-03T14:08:51.224Z,20.97
2019-02-03T14:11:23.318Z,18.23
2019-02-03T14:13:53.478Z,22.58
2019-02-03T14:16:24.074Z,20.68
2019-02-03T14:18:54.171Z,22.20
2019-02-03T14:21:30.112Z,19.95
2019-02-03T14:24:01.110Z,19.00
2019-02-03T14:26:31.219Z,20.20
2019-02-03T14:29:01.330Z,22.07
2019-02-03T14:31:31.420Z,21.68
2019-02-03T14:34:02.530Z,23.27
2019-02-03T14:36:33.604Z,21.95
2019-02-03T14:39:07.206Z,21.95
2019-02-03T14:41:40.398Z,21.48
2019-02-03T14:44:10.519Z,23.52
2019-02-03T14:46:40.598Z,21.50
2019-02-03T14:49:13.283Z,24.92
2019-02-03T14:51:49.163Z,23.65
2019-02-03T14:54:21.903Z,23.10
2019-02-03T14:56:52.002Z,23.98
2019-02-03T14:59:22.107Z,23.27
2019-02-03T15:01:52.211Z,23.80
2019-02-03T15:04:22.307Z,23.38
2019-02-03T15:06:52.467Z,23.50
2019-02-03T15:09:22.587Z,23.18
2019-02-03T15:11:52.670Z,24.77
2019-02-03T15:14:22.762Z,21.80
2019-02-03T15:16:53.131Z,23.40
2019-02-03T15:19:23.228Z,26.07
2019-02-03T15:21:53.335Z,21.62
2019-02-03T15:24:23.423Z,24.05
2019-02-03T15:26:53.578Z,19.75
2019-02-03T15:29:24.638Z,23.55
2019-02-03T15:31:54.707Z,23.25
2019-02-03T15:34:24.902Z,29.55
2019-02-03T15:36:54.987Z,25.90
2019-02-03T15:39:26.015Z,26.07
2019-02-03T15:41:59.320Z,22.87
2019-02-03T15:44:29.422Z,25.52
2019-02-03T15:46:59.783Z,24.30
2019-02-03T15:49:29.868Z,20.50
2019-02-03T15:52:06.243Z,19.55
2019-02-03T15:54:36.327Z,20.23
2019-02-03T15:57:06.854Z,20.62
2019-02-03T15:59:37.916Z,20.20
2019-02-03T16:02:11.867Z,16.90
2019-02-03T16:04:44.151Z,20.17
2019-02-03T16:07:15.239Z,19.20
2019-02-03T16:09:45.324Z,18.35
2019-02-03T16:12:16.422Z,18.57
2019-02-03T16:14:46.533Z,20.25
2019-02-03T16:17:16.903Z,16.93
2019-02-03T16:19:47.984Z,20.20
2019-02-03T16:22:18.091Z,17.60
2019-02-03T16:24:50.060Z,18.82
2019-02-03T16:27:26.135Z,17.50
2019-02-03T16:29:56.246Z,18.52
2019-02-03T16:32:27.334Z,12.55
2019-02-03T16:34:58.947Z,18.50
2019-02-03T16:37:29.975Z,16.82
2019-02-03T16:40:01.027Z,18.37
2019-02-03T16:42:31.167Z,13.80
2019-02-03T16:45:01.287Z,16.00
2019-02-03T16:47:31.424Z,14.35
2019-02-03T16:50:07.046Z,13.25
2019-02-03T16:52:38.067Z,15.45
2019-02-03T16:55:13.264Z,17.95
2019-02-03T16:57:44.327Z,16.77
2019-02-03T17:00:20.643Z,16.32
2019-02-03T17:02:58.727Z,16.50
2019-02-03T17:05:31.885Z,16.35
2019-02-03T17:08:13.436Z,15.55
2019-02-03T17:10:44.162Z,15.48
2019-02-03T17:13:14.427Z,17.73
2019-02-03T17:15:55.139Z,20.15
2019-02-03T17:18:25.226Z,16.50
2019-02-03T17:21:01.774Z,15.40
2019-02-03T17:23:28.136Z,15.45
2019-02-03T17:26:03.077Z,17.27
2019-02-03T17:28:33.198Z,15.90
2019-02-03T17:31:04.151Z,15.38
2019-02-03T17:33:36.889Z,15.35
2019-02-03T17:36:09.168Z,13.20
2019-02-03T17:38:39.259Z,16.25
2019-02-03T17:41:11.391Z,15.98
2019-02-03T17:43:41.481Z,14.63
2019-02-03T17:46:19.234Z,11.33
2019-02-03T17:48:49.723Z,16.12
2019-02-03T17:51:20.739Z,16.80
2019-02-03T17:53:54.019Z,15.83
2019-02-03T17:56:26.094Z,18.45
2019-02-03T17:58:56.199Z,19.80
2019-02-03T18:01:28.387Z,18.10
2019-02-03T18:03:58.468Z,18.73
2019-02-03T18:06:28.639Z,16.37
2019-02-03T18:09:00.672Z,15.58
2019-02-03T18:11:32.763Z,16.48
2019-02-03T18:14:05.119Z,14.65
2019-02-03T18:16:35.225Z,15.85
2019-02-03T18:19:05.450Z,15.98
2019-02-03T18:21:36.455Z,13.05
2019-02-03T18:24:06.714Z,16.10
2019-02-03T18:26:43.299Z,16.55
2019-02-03T18:29:14.363Z,15.58
2019-02-03T18:31:46.398Z,14.87
2019-02-03T18:34:17.443Z,16.07
2019-02-03T18:36:47.538Z,14.00
2019-02-03T18:39:19.639Z,19.45
2019-02-03T18:41:51.779Z,16.70
2019-02-03T18:44:35.547Z,16.30
2019-02-03T18:47:02.704Z,17.75
2019-02-03T18:49:33.695Z,16.77
2019-02-03T18:52:03.817Z,17.75
2019-02-03T18:54:35.891Z,16.55
2019-02-03T18:57:07.572Z,15.78
2019-02-03T18:59:41.263Z,20.12
2019-02-03T19:02:11.363Z,18.90
2019-02-03T19:04:41.467Z,17.15
2019-02-03T19:07:11.563Z,17.00
2019-02-03T19:09:41.663Z,17.98
2019-02-03T19:12:12.675Z,16.35
2019-02-03T19:14:47.536Z,17.35
2019-02-03T19:17:14.676Z,13.62
2019-02-03T19:19:44.773Z,17.32
2019-02-03T19:22:21.561Z,17.57
2019-02-03T19:24:53.215Z,15.08
2019-02-03T19:27:30.076Z,16.80
2019-02-03T19:30:00.333Z,17.15
2019-02-03T19:32:32.347Z,16.25
2019-02-03T19:35:02.491Z,17.92
2019-02-03T19:37:32.559Z,21.82
2019-02-03T19:40:02.683Z,17.10
2019-02-03T19:42:32.783Z,17.20
2019-02-03T19:45:15.140Z,16.00
2019-02-03T19:47:47.063Z,16.17
2019-02-03T19:50:27.670Z,17.37
2019-02-03T19:53:01.327Z,14.30
2019-02-03T19:55:33.312Z,16.52
2019-02-03T19:58:16.339Z,16.05
2019-02-03T20:00:47.004Z,17.30
2019-02-03T20:03:19.168Z,17.65
2019-02-03T20:05:52.237Z,15.83
2019-02-03T20:08:25.395Z,15.72
2019-02-03T20:10:57.615Z,38.58
2019-02-03T20:13:27.735Z,24.57
2019-02-03T20:15:58.751Z,26.95
2019-02-03T20:18:28.839Z,16.85
2019-02-03T20:21:12.928Z,18.37
2019-02-03T20:23:43.037Z,17.30
2019-02-03T20:26:22.037Z,19.57
2019-02-03T20:28:57.903Z,17.57
2019-02-03T20:31:28.971Z,18.07
2019-02-03T20:33:59.067Z,19.85
2019-02-03T20:36:29.151Z,20.05
2019-02-03T20:39:00.232Z,18.23
2019-02-03T20:41:31.564Z,17.75
2019-02-03T20:44:01.660Z,14.75
2019-02-03T20:46:31.759Z,18.25
2019-02-03T20:49:09.219Z,15.72
2019-02-03T20:51:40.340Z,14.68
2019-02-03T20:54:25.563Z,14.58
2019-02-03T20:56:55.661Z,14.95
2019-02-03T20:59:26.660Z,18.55
2019-02-03T21:01:56.755Z,16.10
2019-02-03T21:04:28.039Z,15.20
2019-02-03T21:07:03.183Z,13.95
2019-02-03T21:09:33.291Z,18.80
2019-02-03T21:12:05.831Z,16.37
2019-02-03T21:14:36.692Z,13.85
2019-02-03T21:17:08.813Z,15.78
2019-02-03T21:19:38.919Z,16.15
2019-02-03T21:22:09.019Z,16.50
2019-02-03T21:24:40.036Z,29.48
2019-02-03T21:27:12.099Z,17.37
2019-02-03T21:29:48.391Z,15.15
2019-02-03T21:32:18.523Z,14.90
2019-02-03T21:34:48.615Z,15.23
2019-02-03T21:37:19.671Z,16.30
2019-02-03T21:39:56.856Z,17.30
2019-02-03T21:42:26.961Z,19.92
2019-02-03T21:44:57.995Z,16.75
2019-02-03T21:47:29.055Z,18.77
2019-02-03T21:49:59.175Z,19.87
2019-02-03T21:52:31.429Z,19.87
2019-02-03T21:55:01.508Z,16.97
2019-02-03T21:57:31.597Z,15.95
2019-02-03T22:00:01.725Z,17.25
2019-02-03T22:02:31.819Z,14.45
2019-02-03T22:05:07.387Z,13.58
2019-02-03T22:07:46.711Z,13.55
2019-02-03T22:10:20.892Z,14.65
2019-02-03T22:12:51.011Z,14.15
2019-02-03T22:15:23.389Z,14.80
2019-02-03T22:17:53.511Z,13.93
2019-02-03T22:20:24.999Z,12.85
2019-02-03T22:22:56.108Z,13.90
2019-02-03T22:25:27.320Z,15.15
2019-02-03T22:27:57.437Z,14.23
2019-02-03T22:30:31.672Z,13.45
2019-02-03T22:33:04.498Z,12.55
2019-02-03T22:35:36.579Z,13.88
2019-02-03T22:38:07.024Z,13.25
2019-02-03T22:40:37.192Z,13.05
2019-02-03T22:43:19.060Z,12.82
2019-02-03T22:45:49.161Z,13.20
2019-02-03T22:48:20.231Z,11.88
2019-02-03T22:50:51.269Z,11.40
2019-02-03T22:53:21.344Z,12.90
2019-02-03T22:55:57.360Z,12.70
2019-02-03T22:58:27.527Z,12.75
2019-02-03T23:01:06.224Z,13.13
2019-02-03T23:03:42.706Z,13.18
2019-02-03T23:06:27.156Z,12.68
2019-02-03T23:08:57.543Z,15.00
2019-02-03T23:11:27.619Z,15.30
2019-02-03T23:13:57.699Z,16.05
2019-02-03T23:16:27.828Z,14.47
2019-02-03T23:18:59.977Z,17.98
2019-02-03T23:21:30.144Z,16.57
2019-02-03T23:24:00.224Z,16.02
2019-02-03T23:26:31.315Z,17.92
2019-02-03T23:29:01.417Z,14.58
2019-02-03T23:31:31.508Z,13.18
2019-02-03T23:34:01.622Z,11.73
2019-02-03T23:36:31.711Z,12.20
2019-02-03T23:39:02.828Z,13.68
2019-02-03T23:41:32.931Z,13.00
2019-02-03T23:44:03.063Z,13.05
2019-02-03T23:46:33.156Z,12.58
2019-02-03T23:49:04.900Z,11.80
2019-02-03T23:51:36.055Z,11.40
2019-02-03T23:54:06.776Z,11.93
2019-02-03T23:56:36.867Z,12.60
2019-02-03T23:59:06.965Z,12.07
